createdAt,value
2016-12-17T00:01:02.221Z,1035.2
2016-12-17T00:02:05.678Z,1035.2
2016-12-17T00:03:08.622Z,1035.2
2016-12-17T00:04:11.568Z,1035.2
2016-12-17T00:05:15.017Z,1035.2
2016-12-17T00:06:17.961Z,1035.2
2016-12-17T00:07:21.036Z,1035.2
2016-12-17T00:08:24.513Z,1035.2
2016-12-17T00:09:27.458Z,1035.3
2016-12-17T00:11:33.811Z,1035.2
2016-12-17T00:12:36.753Z,1035.2
2016-12-17T00:13:40.205Z,1035.2
2016-12-17T00:14:43.143Z,1035.2
2016-12-17T00:15:46.595Z,1035.2
2016-12-17T00:16:49.742Z,1035.2
2016-12-17T00:17:52.686Z,1035.3
2016-12-17T00:18:56.139Z,1035.3
2016-12-17T00:19:59.081Z,1035.3
2016-12-17T00:21:02.027Z,1035.2
2016-12-17T00:22:05.470Z,1035.3
2016-12-17T00:23:08.416Z,1035.3
2016-12-17T00:24:11.864Z,1035.3
2016-12-17T00:25:14.809Z,1035.3
2016-12-17T00:26:17.751Z,1035.3
2016-12-17T00:27:21.200Z,1035.3
2016-12-17T00:28:24.149Z,1035.3
2016-12-17T00:29:27.596Z,1035.3
2016-12-17T00:30:30.538Z,1035.3
2016-12-17T00:31:33.484Z,1035.3
2016-12-17T00:32:36.928Z,1035.3
2016-12-17T00:33:39.877Z,1035.3
2016-12-17T00:34:43.332Z,1035.3
2016-12-17T00:35:46.408Z,1035.3
2016-12-17T00:36:49.349Z,1035.4
2016-12-17T00:37:52.793Z,1035.4
2016-12-17T00:38:55.770Z,1035.3
2016-12-17T00:39:58.852Z,1035.3
2016-12-17T00:41:02.304Z,1035.4
2016-12-17T00:42:05.242Z,1035.3
2016-12-17T00:43:08.192Z,1035.3
2016-12-17T00:44:11.640Z,1035.3
2016-12-17T00:45:14.582Z,1035.3
2016-12-17T00:46:18.024Z,1035.3
2016-12-17T00:47:20.967Z,1035.3
2016-12-17T00:48:24.411Z,1035.3
2016-12-17T00:49:27.353Z,1035.3
2016-12-17T00:50:30.302Z,1035.4
2016-12-17T00:51:33.743Z,1035.3
2016-12-17T00:52:36.683Z,1035.3
2016-12-17T00:53:40.128Z,1035.3
2016-12-17T00:54:43.069Z,1035.3
2016-12-17T00:55:46.019Z,1035.3
2016-12-17T00:56:49.461Z,1035.3
2016-12-17T00:57:52.404Z,1035.3
2016-12-17T00:58:55.844Z,1035.2
2016-12-17T00:59:58.817Z,1035.3
2016-12-17T01:01:01.759Z,1035.3
2016-12-17T01:02:05.207Z,1035.3
2016-12-17T01:03:08.464Z,1035.3
2016-12-17T01:04:11.408Z,1035.3
2016-12-17T01:05:14.353Z,1035.3
2016-12-17T01:06:17.800Z,1035.3
2016-12-17T01:07:20.741Z,1035.3
2016-12-17T01:08:24.186Z,1035.3
2016-12-17T01:09:27.131Z,1035.3
2016-12-17T01:10:30.579Z,1035.3
2016-12-17T01:11:33.525Z,1035.3
2016-12-17T01:12:36.469Z,1035.3
2016-12-17T01:13:39.942Z,1035.3
2016-12-17T01:14:42.883Z,1035.3
2016-12-17T01:16:49.244Z,1035.3
2016-12-17T01:17:52.189Z,1035.3
2016-12-17T01:18:55.637Z,1035.3
2016-12-17T01:19:58.585Z,1035.3
2016-12-17T01:21:02.030Z,1035.4
2016-12-17T01:22:05.109Z,1035.4
2016-12-17T01:23:08.054Z,1035.3
2016-12-17T01:23:39.292Z,1035.3
2016-12-17T01:24:11.537Z,1035.4
2016-12-17T01:25:14.480Z,1035.4
2016-12-17T01:26:17.419Z,1035.3
2016-12-17T01:27:20.865Z,1035.3
2016-12-17T01:28:23.810Z,1035.3
2016-12-17T01:30:30.171Z,1035.3
2016-12-17T01:31:33.115Z,1035.3
2016-12-17T01:32:36.556Z,1035.3
2016-12-17T01:33:39.501Z,1035.3
2016-12-17T01:34:42.948Z,1035.3
2016-12-17T01:35:45.890Z,1035.3
2016-12-17T01:36:49.334Z,1035.3
2016-12-17T01:37:52.275Z,1035.3
2016-12-17T01:38:55.216Z,1035.3
2016-12-17T01:39:58.663Z,1035.3
2016-12-17T01:41:01.613Z,1035.3
2016-12-17T01:42:05.064Z,1035.3
2016-12-17T01:43:08.011Z,1035.3
2016-12-17T01:44:11.379Z,1035.4
2016-12-17T01:45:14.320Z,1035.4
2016-12-17T01:46:17.264Z,1035.3
2016-12-17T01:47:20.709Z,1035.4
2016-12-17T01:48:23.652Z,1035.3
2016-12-17T01:49:27.098Z,1035.4
2016-12-17T01:50:30.043Z,1035.3
2016-12-17T01:51:32.984Z,1035.3
2016-12-17T01:52:36.432Z,1035.4
2016-12-17T01:53:39.377Z,1035.4
2016-12-17T01:54:42.821Z,1035.3
2016-12-17T01:55:45.766Z,1035.3
2016-12-17T01:56:48.707Z,1035.3
2016-12-17T01:57:52.156Z,1035.3
2016-12-17T01:58:55.096Z,1035.4
2016-12-17T01:59:58.546Z,1035.4
2016-12-17T02:01:01.624Z,1035.4
2016-12-17T02:02:04.572Z,1035.4
2016-12-17T02:03:08.018Z,1035.3
2016-12-17T02:04:10.964Z,1035.4
2016-12-17T02:05:13.903Z,1035.4
2016-12-17T02:07:20.258Z,1035.4
2016-12-17T02:09:26.614Z,1035.4
2016-12-17T02:10:30.057Z,1035.5
2016-12-17T02:11:33.002Z,1035.4
2016-12-17T02:12:36.124Z,1035.4
2016-12-17T02:13:39.065Z,1035.4
2016-12-17T02:14:42.508Z,1035.4
2016-12-17T02:15:45.457Z,1035.4
2016-12-17T02:16:48.902Z,1035.5
2016-12-17T02:17:51.843Z,1035.5
2016-12-17T02:18:54.793Z,1035.4
2016-12-17T02:19:58.238Z,1035.5
2016-12-17T02:21:01.182Z,1035.5
2016-12-17T02:22:04.629Z,1035.5
2016-12-17T02:24:10.987Z,1035.5
2016-12-17T02:25:13.931Z,1035.5
2016-12-17T02:26:16.873Z,1035.5
2016-12-17T02:27:20.320Z,1035.5
2016-12-17T02:28:23.271Z,1035.5
2016-12-17T02:29:26.720Z,1035.5
2016-12-17T02:30:29.662Z,1035.5
2016-12-17T02:31:32.600Z,1035.5
2016-12-17T02:32:36.048Z,1035.5
2016-12-17T02:33:38.993Z,1035.5
2016-12-17T02:35:45.350Z,1035.5
2016-12-17T02:36:48.795Z,1035.5
2016-12-17T02:37:51.740Z,1035.5
2016-12-17T02:38:54.679Z,1035.5
2016-12-17T02:39:58.125Z,1035.5
2016-12-17T02:41:01.065Z,1035.5
2016-12-17T02:42:04.159Z,1035.5
2016-12-17T02:43:07.603Z,1035.5
2016-12-17T02:44:10.540Z,1035.5
2016-12-17T02:45:13.486Z,1035.5
2016-12-17T02:47:19.843Z,1035.5
2016-12-17T02:48:23.289Z,1035.5
2016-12-17T02:49:26.367Z,1035.5
2016-12-17T02:50:29.312Z,1035.5
2016-12-17T02:51:32.761Z,1035.5
2016-12-17T02:52:35.702Z,1035.5
2016-12-17T02:53:38.648Z,1035.5
2016-12-17T02:54:42.096Z,1035.6
2016-12-17T02:55:45.035Z,1035.6
2016-12-17T02:56:48.481Z,1035.6
2016-12-17T02:57:51.425Z,1035.6
2016-12-17T02:58:54.366Z,1035.5
2016-12-17T02:59:57.810Z,1035.5
2016-12-17T03:01:00.756Z,1035.5
2016-12-17T03:02:03.881Z,1035.5
2016-12-17T03:04:10.242Z,1035.5
2016-12-17T03:05:13.682Z,1035.5
2016-12-17T03:06:16.629Z,1035.5
2016-12-17T03:07:19.573Z,1035.4
2016-12-17T03:08:23.013Z,1035.4
2016-12-17T03:09:25.958Z,1035.5
2016-12-17T03:10:29.406Z,1035.4
2016-12-17T03:11:32.359Z,1035.4
2016-12-17T03:12:35.305Z,1035.4
2016-12-17T03:13:38.788Z,1035.4
2016-12-17T03:14:41.733Z,1035.4
2016-12-17T03:15:44.673Z,1035.4
2016-12-17T03:16:48.115Z,1035.4
2016-12-17T03:17:51.064Z,1035.4
2016-12-17T03:18:54.504Z,1035.3
2016-12-17T03:19:57.449Z,1035.3
2016-12-17T03:21:00.393Z,1035.3
2016-12-17T03:22:03.838Z,1035.3
2016-12-17T03:23:06.815Z,1035.3
2016-12-17T03:24:10.263Z,1035.3
2016-12-17T03:25:13.430Z,1035.3
2016-12-17T03:26:16.371Z,1035.3
2016-12-17T03:27:19.311Z,1035.3
2016-12-17T03:28:22.751Z,1035.3
2016-12-17T03:29:25.696Z,1035.3
2016-12-17T03:30:29.148Z,1035.4
2016-12-17T03:31:32.097Z,1035.3
2016-12-17T03:32:35.040Z,1035.4
2016-12-17T03:33:38.491Z,1035.4
2016-12-17T03:34:41.432Z,1035.4
2016-12-17T03:36:47.784Z,1035.4
2016-12-17T03:37:50.734Z,1035.3
2016-12-17T03:38:54.178Z,1035.4
2016-12-17T03:39:57.124Z,1035.3
2016-12-17T03:41:00.573Z,1035.3
2016-12-17T03:42:03.513Z,1035.4
2016-12-17T03:43:06.458Z,1035.3
2016-12-17T03:44:09.942Z,1035.3
2016-12-17T03:45:12.886Z,1035.3
2016-12-17T03:46:15.831Z,1035.3
2016-12-17T03:47:19.276Z,1035.4
2016-12-17T03:48:22.220Z,1035.3
2016-12-17T03:49:25.670Z,1035.3
2016-12-17T03:50:28.612Z,1035.4
2016-12-17T03:51:31.555Z,1035.4
2016-12-17T03:52:34.999Z,1035.4
2016-12-17T03:53:37.941Z,1035.4
2016-12-17T03:54:41.389Z,1035.4
2016-12-17T03:55:44.333Z,1035.3
2016-12-17T03:57:50.695Z,1035.3
2016-12-17T03:58:53.639Z,1035.3
2016-12-17T03:59:57.088Z,1035.4
2016-12-17T04:01:00.038Z,1035.3
2016-12-17T04:02:03.115Z,1035.4
2016-12-17T04:03:06.563Z,1035.4
2016-12-17T04:04:09.507Z,1035.4
2016-12-17T04:05:12.448Z,1035.4
2016-12-17T04:06:15.896Z,1035.5
2016-12-17T04:07:18.842Z,1035.4
2016-12-17T04:08:22.288Z,1035.5
2016-12-17T04:09:25.231Z,1035.5
2016-12-17T04:10:28.175Z,1035.4
2016-12-17T04:11:31.629Z,1035.4
2016-12-17T04:12:34.706Z,1035.4
2016-12-17T04:13:37.650Z,1035.5
2016-12-17T04:14:41.106Z,1035.5
2016-12-17T04:15:44.052Z,1035.5
2016-12-17T04:16:46.996Z,1035.4
2016-12-17T04:17:50.441Z,1035.5
2016-12-17T04:18:53.384Z,1035.5
2016-12-17T04:19:56.841Z,1035.4
2016-12-17T04:20:59.787Z,1035.4
2016-12-17T04:22:02.740Z,1035.4
2016-12-17T04:23:06.192Z,1035.4
2016-12-17T04:24:09.129Z,1035.4
2016-12-17T04:25:12.073Z,1035.4
2016-12-17T04:26:15.522Z,1035.4
2016-12-17T04:27:18.462Z,1035.4
2016-12-17T04:29:24.815Z,1035.4
2016-12-17T04:30:28.267Z,1035.4
2016-12-17T04:31:31.209Z,1035.4
2016-12-17T04:32:34.153Z,1035.4
2016-12-17T04:33:37.613Z,1035.4
2016-12-17T04:34:40.696Z,1035.4
2016-12-17T04:35:43.644Z,1035.4
2016-12-17T04:37:50.004Z,1035.5
2016-12-17T04:38:52.946Z,1035.4
2016-12-17T04:39:56.395Z,1035.4
2016-12-17T04:40:59.347Z,1035.4
2016-12-17T04:42:02.802Z,1035.4
2016-12-17T04:43:05.748Z,1035.4
2016-12-17T04:44:08.693Z,1035.5
2016-12-17T04:45:12.159Z,1035.5
2016-12-17T04:46:15.098Z,1035.5
2016-12-17T04:47:18.044Z,1035.5
2016-12-17T04:48:21.489Z,1035.5
2016-12-17T04:49:24.491Z,1035.5
2016-12-17T04:50:27.937Z,1035.4
2016-12-17T04:51:30.910Z,1035.5
2016-12-17T04:52:33.863Z,1035.4
2016-12-17T04:53:37.313Z,1035.5
2016-12-17T04:54:40.257Z,1035.5
2016-12-17T04:55:43.201Z,1035.5
2016-12-17T04:56:46.654Z,1035.5
2016-12-17T04:58:53.010Z,1035.5
2016-12-17T04:59:55.950Z,1035.5
2016-12-17T05:00:58.890Z,1035.5
2016-12-17T05:02:02.332Z,1035.5
2016-12-17T05:03:05.276Z,1035.5
2016-12-17T05:04:08.721Z,1035.6
2016-12-17T05:05:11.666Z,1035.5
2016-12-17T05:06:14.607Z,1035.5
2016-12-17T05:07:18.058Z,1035.5
2016-12-17T05:09:24.423Z,1035.5
2016-12-17T05:10:27.364Z,1035.5
2016-12-17T05:11:30.309Z,1035.6
2016-12-17T05:12:33.756Z,1035.6
2016-12-17T05:13:36.698Z,1035.6
2016-12-17T05:14:40.146Z,1035.6
2016-12-17T05:15:43.091Z,1035.6
2016-12-17T05:16:46.039Z,1035.6
2016-12-17T05:18:52.392Z,1035.7
2016-12-17T05:19:55.836Z,1035.6
2016-12-17T05:22:01.690Z,1035.7
2016-12-17T05:23:05.141Z,1035.6
2016-12-17T05:24:08.083Z,1035.7
2016-12-17T05:25:11.527Z,1035.7
2016-12-17T05:26:14.476Z,1035.7
2016-12-17T05:27:17.417Z,1035.7
2016-12-17T05:28:20.588Z,1035.7
2016-12-17T05:29:24.035Z,1035.7
2016-12-17T05:30:26.981Z,1035.7
2016-12-17T05:31:30.431Z,1035.7
2016-12-17T05:32:33.406Z,1035.7
2016-12-17T05:33:36.346Z,1035.8
2016-12-17T05:34:39.795Z,1035.7
2016-12-17T05:35:42.739Z,1035.8
2016-12-17T05:36:45.680Z,1035.8
2016-12-17T05:37:49.128Z,1035.8
2016-12-17T05:38:52.070Z,1035.8
2016-12-17T05:39:55.517Z,1035.8
2016-12-17T05:40:58.465Z,1035.8
2016-12-17T05:42:01.411Z,1035.9
2016-12-17T05:43:04.859Z,1035.9
2016-12-17T05:44:07.800Z,1035.9
2016-12-17T05:45:11.247Z,1035.9
2016-12-17T05:46:14.191Z,1035.9
2016-12-17T05:47:17.141Z,1035.9
2016-12-17T05:49:23.498Z,1035.9
2016-12-17T05:50:26.945Z,1035.9
2016-12-17T05:51:29.891Z,1035.9
2016-12-17T05:52:32.837Z,1035.9
2016-12-17T05:53:36.283Z,1035.9
2016-12-17T05:54:39.227Z,1036
2016-12-17T05:55:42.674Z,1036
2016-12-17T05:56:45.615Z,1036
2016-12-17T05:57:48.555Z,1036
2016-12-17T05:58:52.000Z,1036
2016-12-17T05:59:54.940Z,1036
2016-12-17T06:00:58.385Z,1036
2016-12-17T06:02:01.325Z,1036
2016-12-17T06:03:04.279Z,1036
2016-12-17T06:04:07.723Z,1036
2016-12-17T06:05:10.666Z,1036
2016-12-17T06:06:13.613Z,1036
2016-12-17T06:07:17.060Z,1036
2016-12-17T06:08:20.010Z,1036
2016-12-17T06:09:23.088Z,1036
2016-12-17T06:11:29.447Z,1036
2016-12-17T06:12:32.892Z,1036
2016-12-17T06:13:35.833Z,1036
2016-12-17T06:14:38.774Z,1035.9
2016-12-17T06:15:41.957Z,1035.9
2016-12-17T06:16:45.409Z,1036
2016-12-17T06:17:48.350Z,1036
2016-12-17T06:18:51.301Z,1035.9
2016-12-17T06:19:54.747Z,1036
2016-12-17T06:20:57.692Z,1036
2016-12-17T06:22:01.140Z,1036
2016-12-17T06:23:04.082Z,1036
2016-12-17T06:24:07.023Z,1036
2016-12-17T06:25:10.467Z,1036
2016-12-17T06:26:13.413Z,1036
2016-12-17T06:27:16.865Z,1036
2016-12-17T06:28:19.806Z,1036.1
2016-12-17T06:29:22.782Z,1036.1
2016-12-17T06:30:26.235Z,1036.1
2016-12-17T06:31:29.180Z,1036
2016-12-17T06:32:32.124Z,1036.1
2016-12-17T06:33:35.573Z,1036.1
2016-12-17T06:34:38.514Z,1036.1
2016-12-17T06:35:41.963Z,1036.2
2016-12-17T06:36:44.908Z,1036.2
2016-12-17T06:37:47.857Z,1036.2
2016-12-17T06:38:51.302Z,1036.2
2016-12-17T06:39:54.241Z,1036.3
2016-12-17T06:40:57.691Z,1036.3
2016-12-17T06:42:00.627Z,1036.3
2016-12-17T06:43:03.565Z,1036.3
2016-12-17T06:44:07.009Z,1036.4
2016-12-17T06:45:09.950Z,1036.4
2016-12-17T06:46:13.399Z,1036.4
2016-12-17T06:47:16.348Z,1036.4
2016-12-17T06:49:22.704Z,1036.4
2016-12-17T06:50:25.645Z,1036.4
2016-12-17T06:51:29.089Z,1036.4
2016-12-17T06:52:32.031Z,1036.5
2016-12-17T06:53:34.971Z,1036.5
2016-12-17T06:54:38.413Z,1036.5
2016-12-17T06:55:41.358Z,1036.5
2016-12-17T06:56:44.802Z,1036.5
2016-12-17T06:57:47.743Z,1036.5
2016-12-17T06:58:50.697Z,1036.5
2016-12-17T06:59:54.150Z,1036.5
2016-12-17T07:00:57.095Z,1036.6
2016-12-17T07:02:00.039Z,1036.6
2016-12-17T07:03:03.485Z,1036.6
2016-12-17T07:04:06.425Z,1036.7
2016-12-17T07:05:09.870Z,1036.6
2016-12-17T07:06:12.812Z,1036.6
2016-12-17T07:07:15.756Z,1036.6
2016-12-17T07:08:19.201Z,1036.6
2016-12-17T07:09:22.146Z,1036.7
2016-12-17T07:10:25.598Z,1036.6
2016-12-17T07:11:28.540Z,1036.6
2016-12-17T07:12:31.488Z,1036.6
2016-12-17T07:13:34.933Z,1036.6
2016-12-17T07:14:37.882Z,1036.5
2016-12-17T07:15:40.826Z,1036.6
2016-12-17T07:16:44.272Z,1036.6
2016-12-17T07:17:47.223Z,1036.6
2016-12-17T07:18:50.665Z,1036.6
2016-12-17T07:19:53.606Z,1036.5
2016-12-17T07:20:56.548Z,1036.5
2016-12-17T07:21:59.995Z,1036.6
2016-12-17T07:23:02.946Z,1036.6
2016-12-17T07:24:06.393Z,1036.6
2016-12-17T07:25:09.335Z,1036.6
2016-12-17T07:26:12.276Z,1036.6
2016-12-17T07:27:15.728Z,1036.6
2016-12-17T07:28:18.676Z,1036.6
2016-12-17T07:29:22.121Z,1036.6
2016-12-17T07:30:25.095Z,1036.6
2016-12-17T07:31:28.036Z,1036.6
2016-12-17T07:32:31.481Z,1036.5
2016-12-17T07:33:34.458Z,1036.6
2016-12-17T07:34:37.403Z,1036.6
2016-12-17T07:35:40.843Z,1036.5
2016-12-17T07:36:43.783Z,1036.6
2016-12-17T07:37:47.229Z,1036.6
2016-12-17T07:38:50.179Z,1036.6
2016-12-17T07:39:53.117Z,1036.6
2016-12-17T07:40:56.572Z,1036.7
2016-12-17T07:41:59.511Z,1036.6
2016-12-17T07:43:02.956Z,1036.6
2016-12-17T07:45:08.810Z,1036.7
2016-12-17T07:46:12.254Z,1036.7
2016-12-17T07:47:15.200Z,1036.7
2016-12-17T07:48:18.648Z,1036.7
2016-12-17T07:49:21.589Z,1036.7
2016-12-17T07:50:24.539Z,1036.7
2016-12-17T07:52:30.894Z,1036.7
2016-12-17T07:53:34.339Z,1036.7
2016-12-17T07:54:37.280Z,1036.7
2016-12-17T07:55:40.223Z,1036.7
2016-12-17T07:56:43.671Z,1036.7
2016-12-17T07:57:46.616Z,1036.7
2016-12-17T07:58:50.061Z,1036.8
2016-12-17T07:59:53.001Z,1036.8
2016-12-17T08:00:55.943Z,1036.8
2016-12-17T08:01:59.387Z,1036.8
2016-12-17T08:03:02.330Z,1036.8
2016-12-17T08:04:05.780Z,1036.8
2016-12-17T08:05:08.727Z,1036.8
2016-12-17T08:06:11.670Z,1036.8
2016-12-17T08:07:15.120Z,1036.9
2016-12-17T08:08:18.062Z,1036.9
2016-12-17T08:09:21.508Z,1036.9
2016-12-17T08:10:24.454Z,1036.9
2016-12-17T08:11:27.400Z,1036.9
2016-12-17T08:12:30.851Z,1036.9
2016-12-17T08:13:33.845Z,1036.9
2016-12-17T08:14:36.783Z,1036.9
2016-12-17T08:16:43.142Z,1036.9
2016-12-17T08:17:46.592Z,1036.9
2016-12-17T08:18:49.545Z,1036.9
2016-12-17T08:19:52.489Z,1036.9
2016-12-17T08:20:55.939Z,1036.9
2016-12-17T08:21:58.888Z,1036.9
2016-12-17T08:23:02.332Z,1037
2016-12-17T08:24:05.279Z,1036.9
2016-12-17T08:25:08.219Z,1036.9
2016-12-17T08:26:11.666Z,1036.9
2016-12-17T08:27:14.614Z,1036.9
2016-12-17T08:28:18.059Z,1036.9
2016-12-17T08:29:21.003Z,1036.9
2016-12-17T08:30:23.945Z,1036.9
2016-12-17T08:31:27.411Z,1036.9
2016-12-17T08:32:30.352Z,1036.9
2016-12-17T08:33:33.796Z,1036.9
2016-12-17T08:34:36.738Z,1037
2016-12-17T08:35:39.680Z,1037
2016-12-17T08:36:43.131Z,1036.9
2016-12-17T08:37:46.110Z,1037
2016-12-17T08:38:49.560Z,1037
2016-12-17T08:39:52.505Z,1037
2016-12-17T08:40:55.445Z,1037
2016-12-17T08:41:58.890Z,1037
2016-12-17T08:43:01.835Z,1037
2016-12-17T08:44:05.288Z,1037
2016-12-17T08:45:08.230Z,1037
2016-12-17T08:46:11.175Z,1037.1
2016-12-17T08:47:14.648Z,1037.1
2016-12-17T08:48:17.590Z,1037
2016-12-17T08:49:21.039Z,1037
2016-12-17T08:50:23.984Z,1037.1
2016-12-17T08:51:26.926Z,1037
2016-12-17T08:52:30.375Z,1037.1
2016-12-17T08:53:33.325Z,1037
2016-12-17T08:54:36.773Z,1037.1
2016-12-17T08:55:39.719Z,1037.1
2016-12-17T08:56:42.667Z,1037.1
2016-12-17T08:57:46.117Z,1037.1
2016-12-17T08:58:49.063Z,1037.1
2016-12-17T08:59:52.518Z,1037.1
2016-12-17T09:00:55.460Z,1037.1
2016-12-17T09:01:58.404Z,1037.1
2016-12-17T09:03:01.851Z,1037.2
2016-12-17T09:04:04.793Z,1037.2
2016-12-17T09:05:08.243Z,1037.1
2016-12-17T09:06:11.186Z,1037.2
2016-12-17T09:07:14.125Z,1037.1
2016-12-17T09:08:17.574Z,1037.2
2016-12-17T09:09:20.519Z,1037.1
2016-12-17T09:11:26.904Z,1037.2
2016-12-17T09:12:29.847Z,1037.2
2016-12-17T09:13:33.293Z,1037.2
2016-12-17T09:14:36.238Z,1037.3
2016-12-17T09:15:39.694Z,1037.2
2016-12-17T09:16:42.772Z,1037.2
2016-12-17T09:17:45.719Z,1037.2
2016-12-17T09:18:49.167Z,1037.2
2016-12-17T09:20:55.519Z,1037.3
2016-12-17T09:21:58.459Z,1037.2
2016-12-17T09:23:01.400Z,1037.2
2016-12-17T09:24:04.845Z,1037.3
2016-12-17T09:25:07.794Z,1037.3
2016-12-17T09:26:11.250Z,1037.2
2016-12-17T09:27:14.193Z,1037.2
2016-12-17T09:28:17.142Z,1037.2
2016-12-17T09:29:20.587Z,1037.2
2016-12-17T09:30:23.538Z,1037.2
2016-12-17T09:31:26.989Z,1037.2
2016-12-17T09:32:29.935Z,1037.2
2016-12-17T09:33:32.881Z,1037.2
2016-12-17T09:34:36.329Z,1037.2
2016-12-17T09:35:39.274Z,1037.2
2016-12-17T09:36:42.721Z,1037.2
2016-12-17T09:37:45.819Z,1037.2
2016-12-17T09:38:48.761Z,1037.2
2016-12-17T09:39:52.207Z,1037.2
2016-12-17T09:40:55.153Z,1037.2
2016-12-17T09:41:58.096Z,1037.3
2016-12-17T09:43:01.542Z,1037.2
2016-12-17T09:44:04.483Z,1037.2
2016-12-17T09:45:07.928Z,1037.2
2016-12-17T09:46:10.886Z,1037.2
2016-12-17T09:47:14.336Z,1037.2
2016-12-17T09:48:17.280Z,1037.3
2016-12-17T09:49:20.227Z,1037.3
2016-12-17T09:50:23.672Z,1037.3
2016-12-17T09:51:26.619Z,1037.3
2016-12-17T09:52:30.070Z,1037.3
2016-12-17T09:53:33.016Z,1037.3
2016-12-17T09:54:35.958Z,1037.3
2016-12-17T09:55:39.404Z,1037.3
2016-12-17T09:56:42.349Z,1037.3
2016-12-17T09:57:45.798Z,1037.3
2016-12-17T09:58:48.739Z,1037.3
2016-12-17T09:59:52.187Z,1037.2
2016-12-17T10:00:55.142Z,1037.3
2016-12-17T10:01:58.081Z,1037.3
2016-12-17T10:03:01.530Z,1037.3
2016-12-17T10:04:04.480Z,1037.3
2016-12-17T10:05:07.925Z,1037.3
2016-12-17T10:06:10.870Z,1037.3
2016-12-17T10:07:13.813Z,1037.3
2016-12-17T10:08:17.257Z,1037.3
2016-12-17T10:09:20.194Z,1037.3
2016-12-17T10:10:23.641Z,1037.3
2016-12-17T10:11:26.591Z,1037.3
2016-12-17T10:12:30.042Z,1037.3
2016-12-17T10:13:32.984Z,1037.3
2016-12-17T10:14:35.928Z,1037.2
2016-12-17T10:15:39.374Z,1037.3
2016-12-17T10:16:42.319Z,1037.3
2016-12-17T10:18:48.673Z,1037.3
2016-12-17T10:19:52.123Z,1037.3
2016-12-17T10:20:55.064Z,1037.2
2016-12-17T10:21:58.512Z,1037.2
2016-12-17T10:23:01.455Z,1037.2
2016-12-17T10:24:04.396Z,1037.2
2016-12-17T10:25:07.846Z,1037.2
2016-12-17T10:26:10.795Z,1037.2
2016-12-17T10:27:14.240Z,1037.2
2016-12-17T10:28:17.190Z,1037.2
2016-12-17T10:29:20.133Z,1037.1
2016-12-17T10:30:23.712Z,1037.2
2016-12-17T10:31:26.650Z,1037.1
2016-12-17T10:32:30.096Z,1037.1
2016-12-17T10:33:33.038Z,1037.1
2016-12-17T10:34:35.985Z,1037.1
2016-12-17T10:35:39.581Z,1037.1
2016-12-17T10:36:42.525Z,1037.1
2016-12-17T10:37:49.776Z,1037.1
2016-12-17T10:38:48.695Z,1037.1
2016-12-17T10:39:52.148Z,1037.1
2016-12-17T10:40:55.089Z,1037.1
2016-12-17T10:41:58.538Z,1037.1
2016-12-17T10:43:01.460Z,1037.1
2016-12-17T10:44:04.694Z,1037.1
2016-12-17T10:45:07.646Z,1037.1
2016-12-17T10:46:11.098Z,1037.1
2016-12-17T10:47:14.040Z,1037.2
2016-12-17T10:48:17.480Z,1037.2
2016-12-17T10:49:20.423Z,1037.1
2016-12-17T10:50:23.363Z,1037.1
2016-12-17T10:51:26.805Z,1037.1
2016-12-17T10:52:29.755Z,1037.1
2016-12-17T10:53:33.208Z,1037
2016-12-17T10:54:36.154Z,1037.1
2016-12-17T10:55:39.606Z,1037.1
2016-12-17T10:56:42.543Z,1037.1
2016-12-17T10:57:45.489Z,1037.1
2016-12-17T10:58:48.935Z,1037.2
2016-12-17T10:59:51.884Z,1037.1
2016-12-17T11:00:55.329Z,1037.2
2016-12-17T11:01:58.271Z,1037.2
2016-12-17T11:03:01.719Z,1037.1
2016-12-17T11:04:04.665Z,1037.1
2016-12-17T11:05:08.110Z,1037.1
2016-12-17T11:06:11.059Z,1037.2
2016-12-17T11:07:14.008Z,1037.1
2016-12-17T11:08:17.453Z,1037.2
2016-12-17T11:09:20.399Z,1037.2
2016-12-17T11:10:23.911Z,1037.2
2016-12-17T11:11:26.856Z,1037.3
2016-12-17T11:12:29.800Z,1037.3
2016-12-17T11:13:33.246Z,1037.2
2016-12-17T11:15:39.604Z,1037.2
2016-12-17T11:16:42.545Z,1037.2
2016-12-17T11:17:45.986Z,1037.2
2016-12-17T11:18:48.960Z,1037.2
2016-12-17T11:19:51.963Z,1037.1
2016-12-17T11:20:55.412Z,1037.2
2016-12-17T11:21:58.361Z,1037.2
2016-12-17T11:23:01.807Z,1037.1
2016-12-17T11:24:04.756Z,1037.1
2016-12-17T11:25:08.202Z,1037.2
2016-12-17T11:26:11.151Z,1037.2
2016-12-17T11:27:14.096Z,1037.2
2016-12-17T11:28:17.537Z,1037.2
2016-12-17T11:29:20.481Z,1037.2
2016-12-17T11:30:23.928Z,1037.1
2016-12-17T11:31:26.874Z,1037.2
2016-12-17T11:32:30.322Z,1037.2
2016-12-17T11:33:33.272Z,1037.2
2016-12-17T11:34:36.714Z,1037.1
2016-12-17T11:35:39.797Z,1037.2
2016-12-17T11:36:42.743Z,1037.2
2016-12-17T11:37:46.198Z,1037.2
2016-12-17T11:38:49.141Z,1037.2
2016-12-17T11:39:52.084Z,1037.2
2016-12-17T11:41:58.444Z,1037.2
2016-12-17T11:43:01.891Z,1037.2
2016-12-17T11:44:04.840Z,1037.2
2016-12-17T11:45:08.290Z,1037.1
2016-12-17T11:46:11.235Z,1037.2
2016-12-17T11:47:14.681Z,1037.2
2016-12-17T11:48:17.625Z,1037.2
2016-12-17T11:49:20.571Z,1037.2
2016-12-17T11:50:24.017Z,1037.2
2016-12-17T11:51:26.960Z,1037.2
2016-12-17T11:52:30.404Z,1037.2
2016-12-17T11:53:33.579Z,1037.1
2016-12-17T11:54:36.521Z,1037.1
2016-12-17T11:55:39.974Z,1037.1
2016-12-17T11:56:42.916Z,1037.1
2016-12-17T11:57:46.363Z,1037.1
2016-12-17T11:58:49.303Z,1037.1
2016-12-17T11:59:52.246Z,1037.2
2016-12-17T12:00:55.694Z,1037.1
2016-12-17T12:01:58.644Z,1037.1
2016-12-17T12:03:02.089Z,1037.1
2016-12-17T12:04:05.042Z,1037.2
2016-12-17T12:05:08.124Z,1037.2
2016-12-17T12:06:11.578Z,1037.1
2016-12-17T12:07:14.524Z,1037.2
2016-12-17T12:08:17.972Z,1037.2
2016-12-17T12:09:20.919Z,1037.2
2016-12-17T12:10:24.368Z,1037.1
2016-12-17T12:11:27.320Z,1037.1
2016-12-17T12:12:30.264Z,1037.1
2016-12-17T12:13:33.715Z,1037.2
2016-12-17T12:14:36.658Z,1037.2
2016-12-17T12:15:40.103Z,1037.2
2016-12-17T12:16:43.045Z,1037.2
2016-12-17T12:17:46.493Z,1037.1
2016-12-17T12:18:49.434Z,1037.1
2016-12-17T12:19:52.883Z,1037.1
2016-12-17T12:20:55.830Z,1037.1
2016-12-17T12:21:58.779Z,1037.1
2016-12-17T12:23:02.223Z,1037.2
2016-12-17T12:24:05.173Z,1037.1
2016-12-17T12:25:08.630Z,1037.1
2016-12-17T12:26:11.579Z,1037.1
2016-12-17T12:27:15.028Z,1037.1
2016-12-17T12:28:17.969Z,1037.1
2016-12-17T12:29:21.414Z,1037.2
2016-12-17T12:30:24.359Z,1037.2
2016-12-17T12:31:27.301Z,1037.2
2016-12-17T12:32:30.750Z,1037.1
2016-12-17T12:33:33.695Z,1037.1
2016-12-17T12:34:37.141Z,1037.2
2016-12-17T12:35:40.085Z,1037.1
2016-12-17T12:36:43.162Z,1037.2
2016-12-17T12:37:46.610Z,1037.1
2016-12-17T12:38:49.549Z,1037.1
2016-12-17T12:39:53.006Z,1037.1
2016-12-17T12:40:55.946Z,1037.1
2016-12-17T12:41:59.394Z,1037.1
2016-12-17T12:43:02.334Z,1037.1
2016-12-17T12:44:05.783Z,1037.1
2016-12-17T12:45:08.732Z,1037.1
2016-12-17T12:46:11.677Z,1037.1
2016-12-17T12:47:15.126Z,1037.1
2016-12-17T12:48:18.068Z,1037
2016-12-17T12:49:21.516Z,1037.1
2016-12-17T12:50:24.456Z,1037.1
2016-12-17T12:51:27.902Z,1037.1
2016-12-17T12:52:30.847Z,1037.1
2016-12-17T12:53:34.291Z,1037.1
2016-12-17T12:54:37.233Z,1037.1
2016-12-17T12:55:40.174Z,1037.1
2016-12-17T12:56:43.619Z,1037
2016-12-17T12:57:46.560Z,1037.1
2016-12-17T12:58:50.005Z,1037.1
2016-12-17T12:59:52.947Z,1037.1
2016-12-17T13:00:56.395Z,1037.1
2016-12-17T13:01:59.342Z,1037.1
2016-12-17T13:03:02.454Z,1037.1
2016-12-17T13:04:05.904Z,1037.1
2016-12-17T13:05:08.844Z,1037.2
2016-12-17T13:06:12.295Z,1037.1
2016-12-17T13:07:15.241Z,1037.1
2016-12-17T13:08:18.689Z,1037.2
2016-12-17T13:09:21.631Z,1037.2
2016-12-17T13:10:24.577Z,1037.2
2016-12-17T13:11:28.024Z,1037.2
2016-12-17T13:12:30.966Z,1037.2
2016-12-17T13:13:34.411Z,1037.1
2016-12-17T13:14:37.350Z,1037.1
2016-12-17T13:15:40.796Z,1037.2
2016-12-17T13:16:43.737Z,1037.1
2016-12-17T13:17:47.184Z,1037.1
2016-12-17T13:18:50.126Z,1037.2
2016-12-17T13:19:53.571Z,1037.2
2016-12-17T13:20:56.525Z,1037.2
2016-12-17T13:21:59.466Z,1037.2
2016-12-17T13:23:02.909Z,1037.2
2016-12-17T13:24:05.852Z,1037.2
2016-12-17T13:25:09.300Z,1037.2
2016-12-17T13:26:12.242Z,1037.2
2016-12-17T13:27:15.687Z,1037.2
2016-12-17T13:28:18.636Z,1037.2
2016-12-17T13:29:22.085Z,1037.1
2016-12-17T13:30:25.027Z,1037.2
2016-12-17T13:31:27.976Z,1037.2
2016-12-17T13:32:31.428Z,1037.2
2016-12-17T13:33:34.377Z,1037.1
2016-12-17T13:34:37.828Z,1037.2
2016-12-17T13:35:40.768Z,1037.2
2016-12-17T13:36:44.221Z,1037.2
2016-12-17T13:37:47.166Z,1037.2
2016-12-17T13:38:50.608Z,1037.2
2016-12-17T13:39:53.617Z,1037.2